Terminal Aerodrome Forecast
Issued by NWS

Home | Current Version | Previous Version | Text Only | Print | Product List | Glossary On
Versions: 1 2 3 4 5 6 7 8 9 10 11 12 13 14 15 16 17 18 19
000
FTAK31 PAFA 260526
TAFASC
TAF
PASC 260526Z 2606/2706 13008KT P6SM OVC080
     FM260900 19007KT P6SM SCT015 OVC050
     FM261500 21007KT P6SM -SHSN OVC015
     FM270100 21008KT P6SM SCT015 OVC050=

USA.gov is the U.S. government's official web portal to all federal, state and local government web resources and services.